createdAt,value
2023-03-25T00:01:00.525Z,13.14
2023-03-25T00:05:04.021Z,13.26
2023-03-25T00:09:05.831Z,13.14
2023-03-25T00:13:09.118Z,13.23
2023-03-25T00:17:10.726Z,13.14
2023-03-25T00:21:12.994Z,13.34
2023-03-25T00:25:19.497Z,13.43
2023-03-25T00:29:22.868Z,13.32
2023-03-25T00:33:23.606Z,13.25
2023-03-25T00:37:25.866Z,13.43
2023-03-25T00:41:28.483Z,13.25
2023-03-25T00:45:31.978Z,12.71
2023-03-25T00:49:32.610Z,12.64
2023-03-25T00:53:33.300Z,12.49
2023-03-25T00:57:34.204Z,12.41
2023-03-25T01:01:39.813Z,12.27
2023-03-25T01:05:41.933Z,12.11
2023-03-25T01:09:46.867Z,12.08
2023-03-25T01:13:47.762Z,11.90
2023-03-25T01:17:51.613Z,12.04
2023-03-25T01:21:51.983Z,11.97
2023-03-25T01:25:52.723Z,11.94
2023-03-25T01:29:54.809Z,11.99
2023-03-25T01:33:57.942Z,12.12
2023-03-25T01:37:59.401Z,12.02
2023-03-25T01:41:59.987Z,11.66
2023-03-25T01:46:01.013Z,11.75
2023-03-25T01:50:04.847Z,11.37
2023-03-25T01:54:05.639Z,11.46
2023-03-25T01:58:12.903Z,11.30
2023-03-25T02:02:15.927Z,11.23
2023-03-25T02:06:25.421Z,11.18
2023-03-25T02:10:26.788Z,11.38
2023-03-25T02:14:34.069Z,11.12
2023-03-25T02:18:52.303Z,11.43
2023-03-25T02:23:33.706Z,11.13
2023-03-25T02:28:10.349Z,10.95
2023-03-25T02:32:30.076Z,10.92
2023-03-25T02:37:17.123Z,10.94
2023-03-25T02:41:26.899Z,11.06
2023-03-25T02:45:37.214Z,11.27
2023-03-25T02:49:42.150Z,11.06
2023-03-25T02:53:47.599Z,11.10
2023-03-25T02:57:57.436Z,10.95
2023-03-25T03:02:01.652Z,11.02
2023-03-25T03:06:05.548Z,11.03
2023-03-25T03:10:23.622Z,11.20
2023-03-25T03:14:46.768Z,10.92
2023-03-25T03:19:02.566Z,11.27
2023-03-25T03:23:15.035Z,11.02
2023-03-25T03:27:29.998Z,11.10
2023-03-25T03:31:48.150Z,10.88
2023-03-25T03:36:11.017Z,10.86
2023-03-25T03:40:19.413Z,10.72
2023-03-25T03:44:25.626Z,10.86
2023-03-25T03:48:35.244Z,10.81
2023-03-25T03:52:43.733Z,10.70
2023-03-25T03:56:55.502Z,10.67
2023-03-25T04:01:10.581Z,10.82
2023-03-25T04:05:19.642Z,10.91
2023-03-25T04:09:34.877Z,10.75
2023-03-25T04:13:40.631Z,10.97
2023-03-25T04:17:41.833Z,10.94
2023-03-25T04:21:45.573Z,10.94
2023-03-25T04:25:48.094Z,11.11
2023-03-25T04:29:49.300Z,11.23
2023-03-25T04:33:50.922Z,11.45
2023-03-25T04:37:57.749Z,11.33
2023-03-25T04:42:02.047Z,11.23
2023-03-25T04:46:03.354Z,11.27
2023-03-25T04:50:04.055Z,10.94
2023-03-25T04:54:08.066Z,10.83
2023-03-25T04:58:08.869Z,10.51
2023-03-25T05:02:13.792Z,10.55
2023-03-25T05:06:14.361Z,10.59
2023-03-25T05:10:18.930Z,10.27
2023-03-25T05:14:23.204Z,10.21
2023-03-25T05:18:23.521Z,10.09
2023-03-25T05:22:23.922Z,9.98
2023-03-25T05:26:29.603Z,10.11
2023-03-25T05:30:32.878Z,10.11
2023-03-25T05:34:33.313Z,10.19
2023-03-25T05:38:34.162Z,10.19
2023-03-25T05:42:38.012Z,10.40
2023-03-25T05:46:38.884Z,10.40
2023-03-25T05:50:42.988Z,10.54
2023-03-25T05:54:43.494Z,10.64
2023-03-25T05:58:46.444Z,10.40
2023-03-25T06:02:46.867Z,10.53
2023-03-25T06:06:47.797Z,10.53
2023-03-25T06:10:48.947Z,10.60
2023-03-25T06:14:54.438Z,10.52
2023-03-25T06:18:56.682Z,10.85
2023-03-25T06:22:57.527Z,10.72
2023-03-25T06:26:58.032Z,10.54
2023-03-25T06:31:09.177Z,10.47
2023-03-25T06:35:13.674Z,10.59
2023-03-25T06:39:15.639Z,10.48
2023-03-25T06:43:16.368Z,10.44
2023-03-25T06:47:39.052Z,10.35
2023-03-25T06:51:39.467Z,10.76
2023-03-25T06:55:41.521Z,10.85
2023-03-25T06:59:41.970Z,10.94
2023-03-25T07:03:45.237Z,10.77
2023-03-25T07:07:45.893Z,11.15
2023-03-25T07:11:46.500Z,10.86
2023-03-25T07:15:47.087Z,11.43
2023-03-25T07:19:50.343Z,11.99
2023-03-25T07:23:51.041Z,11.25
2023-03-25T07:27:52.617Z,11.53
2023-03-25T07:31:56.176Z,11.21
2023-03-25T07:35:59.216Z,11.40
2023-03-25T07:40:00.566Z,11.44
2023-03-25T07:44:01.205Z,11.57
2023-03-25T07:48:06.394Z,11.86
2023-03-25T07:52:10.135Z,11.81
2023-03-25T07:56:12.784Z,11.90
2023-03-25T08:00:16.162Z,11.78
2023-03-25T08:04:16.918Z,11.77
2023-03-25T08:08:20.491Z,12.06
2023-03-25T08:12:21.224Z,11.92
2023-03-25T08:16:21.978Z,11.69
2023-03-25T08:20:23.108Z,11.89
2023-03-25T08:24:28.257Z,12.19
2023-03-25T08:28:29.285Z,11.86
2023-03-25T08:32:31.403Z,12.56
2023-03-25T08:36:32.469Z,12.83
2023-03-25T08:40:35.718Z,13.45
2023-03-25T08:44:36.222Z,13.48
2023-03-25T08:48:38.091Z,13.45
2023-03-25T08:52:39.762Z,13.07
2023-03-25T08:56:43.826Z,13.51
2023-03-25T09:00:44.922Z,13.86
2023-03-25T09:04:46.205Z,14.10
2023-03-25T09:08:50.477Z,14.13
2023-03-25T09:12:54.390Z,14.17
2023-03-25T09:16:54.821Z,13.80
2023-03-25T09:20:56.165Z,14.37
2023-03-25T09:24:56.561Z,14.08
2023-03-25T09:29:01.119Z,14.62
2023-03-25T09:33:01.936Z,15.27
2023-03-25T09:37:03.451Z,14.96
2023-03-25T09:41:22.456Z,14.93
2023-03-25T09:45:39.512Z,14.54
2023-03-25T09:49:45.947Z,14.36
2023-03-25T09:53:56.952Z,13.54
2023-03-25T09:58:05.970Z,13.69
2023-03-25T10:02:34.633Z,14.66
2023-03-25T10:06:43.292Z,15.43
2023-03-25T10:10:51.625Z,14.82
2023-03-25T10:15:16.442Z,13.96
2023-03-25T10:19:47.746Z,13.67
2023-03-25T10:23:59.390Z,14.80
2023-03-25T10:28:03.488Z,14.59
2023-03-25T10:32:14.692Z,14.31
2023-03-25T10:36:23.053Z,14.65
2023-03-25T10:40:30.213Z,15.31
2023-03-25T10:44:32.082Z,15.57
2023-03-25T10:48:34.530Z,16.27
2023-03-25T10:52:38.140Z,16.53
2023-03-25T10:56:46.193Z,15.93
2023-03-25T11:00:47.884Z,15.05
2023-03-25T11:04:54.750Z,15.18
2023-03-25T11:09:23.459Z,15.11
2023-03-25T11:13:29.827Z,14.40
2023-03-25T11:17:33.046Z,14.84
2023-03-25T11:21:38.574Z,14.78
2023-03-25T11:25:45.592Z,15.15
2023-03-25T11:29:57.571Z,14.66
2023-03-25T11:34:18.346Z,14.13
2023-03-25T11:38:26.218Z,14.32
2023-03-25T11:42:43.119Z,14.16
2023-03-25T11:46:50.329Z,14.37
2023-03-25T11:50:59.179Z,13.12
2023-03-25T11:55:01.341Z,12.30
2023-03-25T11:59:12.735Z,11.87
2023-03-25T12:03:25.750Z,10.22
2023-03-25T12:12:04.971Z,9.32
2023-03-25T12:16:34.362Z,9.79
2023-03-25T12:21:01.728Z,10.96
2023-03-25T12:25:21.306Z,12.94
2023-03-25T12:29:38.972Z,14.19
2023-03-25T12:34:00.615Z,15.36
2023-03-25T12:38:34.586Z,14.26
2023-03-25T12:42:52.869Z,15.22
2023-03-25T12:47:20.864Z,15.10
2023-03-25T12:51:45.993Z,16.13
2023-03-25T12:56:10.010Z,15.42
2023-03-25T13:00:51.136Z,16.36
2023-03-25T13:05:08.145Z,15.07
2023-03-25T13:09:21.883Z,16.22
2023-03-25T13:13:27.679Z,15.96
2023-03-25T13:17:37.349Z,16.44
2023-03-25T13:21:44.903Z,16.59
2023-03-25T13:25:55.040Z,16.06
2023-03-25T13:29:59.428Z,14.89
2023-03-25T13:34:19.422Z,14.59
2023-03-25T13:38:30.219Z,13.70
2023-03-25T13:42:46.296Z,13.77
2023-03-25T13:46:51.968Z,13.61
2023-03-25T13:50:53.253Z,13.63
2023-03-25T13:55:01.648Z,13.00
2023-03-25T13:59:28.812Z,11.90
2023-03-25T14:04:12.659Z,12.39
2023-03-25T14:08:50.486Z,13.00
2023-03-25T14:12:56.657Z,12.46
2023-03-25T14:17:02.733Z,11.13
2023-03-25T14:21:25.706Z,11.08
2023-03-25T14:25:37.414Z,10.90
2023-03-25T14:29:44.193Z,11.29
2023-03-25T14:34:40.583Z,12.50
2023-03-25T14:39:00.315Z,13.09
2023-03-25T14:43:02.592Z,12.80
2023-03-25T14:47:25.968Z,12.49
2023-03-25T14:51:53.936Z,11.33
2023-03-25T14:55:58.227Z,10.77
2023-03-25T15:00:13.248Z,10.95
2023-03-25T15:04:31.184Z,11.10
2023-03-25T15:08:40.039Z,11.58
2023-03-25T15:12:46.183Z,13.46
2023-03-25T15:17:05.753Z,14.30
2023-03-25T15:21:08.189Z,14.04
2023-03-25T15:25:19.173Z,14.43
2023-03-25T15:29:52.850Z,15.77
2023-03-25T15:34:17.604Z,15.48
2023-03-25T15:38:49.151Z,15.25
2023-03-25T15:43:44.704Z,14.47
2023-03-25T15:48:35.142Z,14.65
2023-03-25T15:53:35.930Z,14.25
2023-03-25T15:57:51.275Z,13.30
2023-03-25T16:01:59.130Z,12.93
2023-03-25T16:06:12.877Z,13.16
2023-03-25T16:10:24.977Z,13.09
2023-03-25T16:14:26.507Z,12.75
2023-03-25T16:18:29.342Z,12.79
2023-03-25T16:22:35.115Z,12.79
2023-03-25T16:26:41.854Z,13.36
2023-03-25T16:30:45.722Z,13.25
2023-03-25T16:34:46.244Z,12.95
2023-03-25T16:38:52.028Z,13.44
2023-03-25T16:42:57.495Z,13.45
2023-03-25T16:47:01.485Z,13.25
2023-03-25T16:51:11.290Z,12.81
2023-03-25T16:55:33.299Z,13.00
2023-03-25T16:59:39.462Z,12.71
2023-03-25T17:03:52.327Z,12.75
2023-03-25T17:08:03.913Z,12.62
2023-03-25T17:12:15.211Z,12.74
2023-03-25T17:16:18.942Z,12.52
2023-03-25T17:20:26.071Z,12.55
2023-03-25T17:24:29.205Z,12.71
2023-03-25T17:28:42.591Z,12.87
2023-03-25T17:32:49.939Z,12.74
2023-03-25T17:37:01.530Z,12.62
2023-03-25T17:41:07.016Z,12.49
2023-03-25T17:45:23.601Z,12.54
2023-03-25T17:49:29.467Z,12.47
2023-03-25T17:53:32.539Z,12.32
2023-03-25T17:57:37.533Z,12.26
2023-03-25T18:01:43.791Z,12.01
2023-03-25T18:05:51.760Z,12.06
2023-03-25T18:09:55.368Z,12.22
2023-03-25T18:14:00.855Z,12.35
2023-03-25T18:18:06.300Z,12.55
2023-03-25T18:22:19.241Z,12.64
2023-03-25T18:26:23.679Z,12.53
2023-03-25T18:30:36.172Z,12.56
2023-03-25T18:34:41.182Z,12.82
2023-03-25T18:38:46.614Z,12.74
2023-03-25T18:42:48.550Z,12.60
2023-03-25T18:46:51.340Z,12.40
2023-03-25T18:50:58.667Z,12.46
2023-03-25T18:55:01.791Z,12.30
2023-03-25T18:59:04.440Z,12.48
2023-03-25T19:03:08.050Z,12.43
2023-03-25T19:07:16.106Z,12.14
2023-03-25T19:11:22.151Z,12.13
2023-03-25T19:15:28.767Z,12.20
2023-03-25T19:19:37.131Z,12.26
2023-03-25T19:23:43.720Z,12.26
2023-03-25T19:27:50.821Z,12.31
2023-03-25T19:31:54.043Z,12.33
2023-03-25T19:36:00.167Z,12.43
2023-03-25T19:40:09.081Z,12.16
2023-03-25T19:44:12.013Z,12.32
2023-03-25T19:48:14.720Z,12.14
2023-03-25T19:52:17.666Z,11.90
2023-03-25T19:56:23.677Z,12.04
2023-03-25T20:00:31.281Z,12.21
2023-03-25T20:04:37.204Z,11.88
2023-03-25T20:08:42.808Z,11.87
2023-03-25T20:12:49.608Z,11.99
2023-03-25T20:16:53.046Z,11.97
2023-03-25T20:20:57.631Z,12.27
2023-03-25T20:25:00.531Z,12.29
2023-03-25T20:29:06.802Z,12.06
2023-03-25T20:33:12.653Z,12.41
2023-03-25T20:37:19.073Z,12.38
2023-03-25T20:41:22.354Z,12.44
2023-03-25T20:55:41.469Z,11.87
2023-03-25T20:59:44.595Z,12.33
2023-03-25T21:03:46.228Z,11.92
2023-03-25T21:07:48.928Z,12.36
2023-03-25T21:11:49.547Z,11.81
2023-03-25T21:15:57.363Z,11.89
2023-03-25T21:19:59.837Z,12.34
2023-03-25T21:24:00.351Z,11.92
2023-03-25T21:28:01.383Z,11.93
2023-03-25T21:32:05.160Z,11.76
2023-03-25T21:36:06.740Z,12.01
2023-03-25T21:40:11.025Z,12.02
2023-03-25T21:44:16.124Z,11.80
2023-03-25T21:48:21.667Z,11.76
2023-03-25T21:52:22.606Z,11.82
2023-03-25T21:56:25.640Z,11.71
2023-03-25T22:00:26.858Z,11.84
2023-03-25T22:04:30.521Z,11.64
2023-03-25T22:08:30.885Z,11.60
2023-03-25T22:12:31.939Z,11.57
2023-03-25T22:16:36.003Z,11.57
2023-03-25T22:20:39.336Z,11.60
2023-03-25T22:24:39.903Z,11.41
2023-03-25T22:28:42.026Z,11.60
2023-03-25T22:32:42.664Z,11.65
2023-03-25T22:36:50.464Z,11.27
2023-03-25T22:40:51.356Z,11.30
2023-03-25T22:44:51.745Z,11.55
2023-03-25T22:48:54.123Z,11.44
2023-03-25T22:52:57.372Z,11.14
2023-03-25T22:56:58.198Z,11.46
2023-03-25T23:01:00.395Z,11.50
2023-03-25T23:09:41.735Z,11.32
2023-03-25T23:13:44.356Z,10.94
2023-03-25T23:17:44.564Z,11.51
2023-03-25T23:21:44.917Z,11.41
2023-03-25T23:25:47.867Z,11.46
2023-03-25T23:29:48.367Z,11.24
2023-03-25T23:33:49.863Z,11.18
2023-03-25T23:37:50.419Z,11.40
2023-03-25T23:41:53.675Z,11.28
2023-03-25T23:45:54.110Z,10.52
2023-03-25T23:49:58.035Z,10.88
2023-03-25T23:53:58.431Z,10.69
2023-03-25T23:58:01.826Z,10.91
